Time;durP1;ratioP1;P1;durP2;ratioP2;P2;SDS_P1;SDS_P2;PMS_P1;PMS_P2;Temp;Humidity;BMP_temperature;BMP_pressure;BME280_temperature;BME280_humidity;BME280_pressure;Samples;Min_cycle;Max_cycle;Signal;HPM_P1;HPM_P2
2022/06/20 00:01:13;;;;;;;4.53;3.70;;;19.00;98.10;;;;;;4936605;29;20623;-74
2022/06/20 00:03:41;;;;;;;4.40;3.03;;;19.00;98.50;;;;;;4920410;29;20589;-74
2022/06/20 00:06:19;;;;;;;7.50;4.63;;;19.00;98.30;;;;;;4935924;29;21176;-74
2022/06/20 00:08:47;;;;;;;5.00;3.57;;;19.00;98.50;;;;;;4937481;29;20591;-73
2022/06/20 00:11:14;;;;;;;5.63;3.10;;;19.00;98.60;;;;;;4936284;29;21148;-74
2022/06/20 00:13:43;;;;;;;4.90;3.27;;;19.10;98.50;;;;;;4936061;29;20961;-74
2022/06/20 00:16:12;;;;;;;5.07;3.40;;;19.00;98.60;;;;;;4937200;29;20989;-74
2022/06/20 00:18:39;;;;;;;4.87;3.27;;;19.00;98.70;;;;;;4936917;29;20659;-74
2022/06/20 00:21:05;;;;;;;5.13;3.40;;;19.10;98.60;;;;;;4936068;29;20604;-74
2022/06/20 00:23:31;;;;;;;5.07;4.20;;;19.10;98.70;;;;;;4935636;29;20631;-74
2022/06/20 00:25:57;;;;;;;5.67;3.60;;;19.10;98.80;;;;;;4936929;29;20978;-74
2022/06/20 00:28:23;;;;;;;6.60;3.63;;;19.10;98.90;;;;;;4936621;29;20259;-74
2022/06/20 00:30:49;;;;;;;5.70;4.00;;;19.00;99.00;;;;;;4936141;29;20201;-74
2022/06/20 00:33:14;;;;;;;5.37;3.43;;;19.00;99.50;;;;;;4936785;29;20177;-74
2022/06/20 00:35:41;;;;;;;4.60;3.30;;;19.00;99.50;;;;;;4937966;29;20596;-74
2022/06/20 00:38:15;;;;;;;5.30;3.27;;;18.90;99.40;;;;;;4936572;29;20275;-74
2022/06/20 00:40:55;;;;;;;3.67;2.97;;;18.90;99.60;;;;;;4935861;29;20599;-74
2022/06/20 00:43:30;;;;;;;4.70;3.13;;;18.90;99.60;;;;;;4935347;29;20592;-74
2022/06/20 00:45:58;;;;;;;5.73;3.47;;;18.90;99.70;;;;;;4935550;29;20576;-74
2022/06/20 00:48:37;;;;;;;6.10;4.97;;;18.90;99.70;;;;;;4934164;29;20576;-74
2022/06/20 00:51:12;;;;;;;7.43;5.20;;;18.80;99.90;;;;;;4935464;29;20704;-74
2022/06/20 00:53:46;;;;;;;4.17;3.80;;;18.90;99.90;;;;;;4935134;29;20580;-74
2022/06/20 00:56:23;;;;;;;4.93;3.87;;;18.80;99.90;;;;;;4936227;29;20696;-74
2022/06/20 00:59:11;;;;;;;5.80;4.37;;;18.90;99.90;;;;;;4935091;29;20916;-74
2022/06/20 01:01:39;;;;;;;7.97;5.30;;;18.90;99.90;;;;;;4935452;29;20989;-74
2022/06/20 01:04:28;;;;;;;6.77;4.90;;;18.90;99.90;;;;;;4936416;29;20565;-74
2022/06/20 01:06:56;;;;;;;6.17;4.47;;;18.80;99.90;;;;;;4919246;29;21286;-73
2022/06/20 01:09:27;;;;;;;7.13;6.37;;;18.90;99.90;;;;;;4936242;29;20984;-74
2022/06/20 01:11:56;;;;;;;7.80;6.40;;;18.90;99.90;;;;;;4937621;29;20617;-73
2022/06/20 01:14:38;;;;;;;6.43;5.63;;;18.90;99.90;;;;;;4934960;29;20937;-75
2022/06/20 01:17:29;;;;;;;8.10;6.60;;;18.90;99.90;;;;;;4936024;29;20616;-73
2022/06/20 01:19:59;;;;;;;10.00;6.60;;;18.90;99.90;;;;;;4926509;29;21239;-74
2022/06/20 01:22:38;;;;;;;9.27;6.20;;;18.80;99.90;;;;;;4934281;29;20569;-73
2022/06/20 01:25:06;;;;;;;6.30;5.40;;;18.80;99.90;;;;;;4934748;29;20998;-73
2022/06/20 01:27:38;;;;;;;7.60;5.13;;;18.80;99.90;;;;;;4935821;29;20636;-75
2022/06/20 01:30:05;;;;;;;6.73;4.03;;;18.70;99.90;;;;;;4935320;29;20643;-74
2022/06/20 01:32:31;;;;;;;7.47;4.30;;;18.50;99.90;;;;;;4935335;29;21024;-74
2022/06/20 01:35:00;;;;;;;5.60;3.57;;;18.50;99.90;;;;;;4934256;29;20640;-74
2022/06/20 01:37:28;;;;;;;3.90;3.33;;;18.40;99.90;;;;;;4935474;29;20644;-75
2022/06/20 01:40:04;;;;;;;6.23;3.10;;;18.20;99.90;;;;;;4933958;29;20617;-75
2022/06/20 01:42:32;;;;;;;4.43;4.03;;;18.10;99.90;;;;;;4935129;29;20572;-74
2022/06/20 01:45:04;;;;;;;5.37;3.47;;;18.00;99.90;;;;;;4935671;29;20577;-75
2022/06/20 01:47:31;;;;;;;5.43;4.10;;;17.80;99.90;;;;;;4943081;29;20794;-75
2022/06/20 01:50:02;;;;;;;5.80;4.30;;;17.80;99.90;;;;;;4935210;29;21091;-75
2022/06/20 01:52:34;;;;;;;5.77;4.00;;;17.70;99.90;;;;;;4917907;29;21407;-74
2022/06/20 01:55:19;;;;;;;6.30;4.77;;;17.60;99.90;;;;;;4934106;29;20585;-74
2022/06/20 01:57:48;;;;;;;6.97;3.87;;;17.50;99.90;;;;;;4934064;29;20629;-74
2022/06/20 02:00:19;;;;;;;4.00;3.50;;;17.40;99.90;;;;;;4934328;29;20624;-75
2022/06/20 02:02:55;;;;;;;5.73;3.80;;;17.40;99.90;;;;;;4934502;29;20581;-74
2022/06/20 02:05:27;;;;;;;8.93;5.13;;;17.30;99.90;;;;;;4935094;29;20576;-73
2022/06/20 02:07:54;;;;;;;5.60;4.07;;;17.30;99.90;;;;;;4935134;29;20573;-74
2022/06/20 02:10:28;;;;;;;6.23;4.70;;;17.20;99.90;;;;;;4934526;29;20620;-74
2022/06/20 02:12:58;;;;;;;4.70;4.30;;;17.20;99.90;;;;;;4934934;29;20651;-73
2022/06/20 02:15:26;;;;;;;5.37;4.60;;;17.20;99.90;;;;;;4934982;29;20571;-73
2022/06/20 02:17:53;;;;;;;5.17;4.57;;;17.10;99.90;;;;;;4933443;29;20632;-73
2022/06/20 02:20:26;;;;;;;6.83;4.50;;;17.10;99.90;;;;;;4934549;29;20623;-73
2022/06/20 02:22:53;;;;;;;6.50;4.17;;;17.10;99.90;;;;;;4934876;29;20668;-73
2022/06/20 02:25:24;;;;;;;5.07;4.20;;;17.00;99.90;;;;;;4938898;29;20679;-73
2022/06/20 02:28:06;;;;;;;4.97;4.47;;;17.00;99.90;;;;;;4934844;29;20585;-73
2022/06/20 02:30:32;;;;;;;7.00;5.07;;;16.90;99.90;;;;;;4933819;29;20597;-73
2022/06/20 02:33:09;;;;;;;4.90;4.23;;;16.90;99.90;;;;;;4933572;29;20577;-73
2022/06/20 02:35:35;;;;;;;6.30;5.40;;;16.80;99.90;;;;;;4934643;29;20954;-73
2022/06/20 02:38:01;;;;;;;6.57;5.47;;;16.80;99.90;;;;;;4934550;29;20625;-73
2022/06/20 02:40:30;;;;;;;8.33;6.23;;;16.70;99.90;;;;;;4933756;29;20604;-73
2022/06/20 02:43:14;;;;;;;11.93;8.90;;;16.70;99.90;;;;;;4934217;29;20577;-73
2022/06/20 02:45:40;;;;;;;9.70;8.80;;;16.70;99.90;;;;;;4933390;29;21021;-73
2022/06/20 02:48:08;;;;;;;11.67;8.73;;;16.60;99.90;;;;;;4934283;29;20583;-73
2022/06/20 02:50:39;;;;;;;8.97;7.30;;;16.50;99.90;;;;;;4933690;29;20601;-74
2022/06/20 02:53:38;;;;;;;6.77;6.10;;;16.50;99.90;;;;;;4933277;29;20619;-73
2022/06/20 02:56:06;;;;;;;8.13;7.07;;;16.50;99.90;;;;;;4933397;29;20575;-73
2022/06/20 02:58:35;;;;;;;5.40;4.90;;;16.50;99.90;;;;;;4934164;29;20730;-73
2022/06/20 03:01:10;;;;;;;7.67;6.67;;;16.50;99.90;;;;;;4938059;29;20613;-73
2022/06/20 03:03:39;;;;;;;8.63;6.80;;;16.50;99.90;;;;;;4934547;29;20580;-74
2022/06/20 03:06:09;;;;;;;6.97;6.27;;;16.60;99.90;;;;;;4917605;29;20580;-74
2022/06/20 03:08:35;;;;;;;5.87;5.37;;;16.60;99.90;;;;;;4934548;29;21174;-74
2022/06/20 03:11:05;;;;;;;5.63;5.10;;;16.60;99.90;;;;;;4934449;29;20600;-73
2022/06/20 03:13:32;;;;;;;5.83;5.33;;;16.60;99.90;;;;;;4939124;29;20608;-74
2022/06/20 03:16:01;;;;;;;10.07;5.90;;;16.60;99.90;;;;;;4938117;29;20577;-73
2022/06/20 03:18:28;;;;;;;6.27;5.67;;;16.60;99.90;;;;;;4938320;29;20662;-73
2022/06/20 03:20:54;;;;;;;6.97;5.10;;;16.60;99.90;;;;;;4936241;29;20608;-73
2022/06/20 03:23:26;;;;;;;5.97;5.47;;;16.70;99.90;;;;;;4938361;29;20585;-73
2022/06/20 03:25:54;;;;;;;6.17;5.57;;;16.70;99.90;;;;;;4936989;29;20628;-73
2022/06/20 03:28:22;;;;;;;5.80;5.30;;;16.70;99.90;;;;;;4937011;29;20581;-73
2022/06/20 03:30:49;;;;;;;7.60;4.93;;;16.70;99.90;;;;;;4937012;29;20691;-73
2022/06/20 03:33:16;;;;;;;5.23;4.37;;;16.60;99.90;;;;;;4937992;29;20585;-73
2022/06/20 03:35:54;;;;;;;5.40;4.90;;;16.60;99.90;;;;;;4937736;29;20681;-73
2022/06/20 03:38:21;;;;;;;5.90;5.30;;;16.60;99.90;;;;;;4944113;29;20780;-73
2022/06/20 03:40:47;;;;;;;4.50;4.07;;;16.60;99.90;;;;;;4936798;29;21052;-73
2022/06/20 03:43:17;;;;;;;4.60;4.20;;;16.60;99.90;;;;;;4937368;29;20577;-73
2022/06/20 03:45:56;;;;;;;5.87;5.30;;;16.60;99.90;;;;;;4937310;29;20580;-73
2022/06/20 03:48:51;;;;;;;5.37;4.10;;;16.60;99.90;;;;;;4937675;29;20592;-73
2022/06/20 03:51:21;;;;;;;4.10;3.27;;;16.70;99.90;;;;;;4907072;29;20960;-73
2022/06/20 03:53:54;;;;;;;4.37;3.50;;;16.70;99.90;;;;;;4937548;29;20623;-73
2022/06/20 03:56:24;;;;;;;3.83;3.47;;;16.70;99.90;;;;;;4937494;29;20592;-73
2022/06/20 03:59:01;;;;;;;6.00;4.03;;;16.60;99.90;;;;;;4937141;29;20580;-73
2022/06/20 04:01:36;;;;;;;4.70;3.70;;;16.70;99.90;;;;;;4936809;29;20572;-73
2022/06/20 04:04:40;;;;;;;3.57;3.20;;;16.70;99.90;;;;;;4937318;29;20572;-74
2022/06/20 04:07:23;;;;;;;4.83;4.17;;;16.70;99.90;;;;;;4937700;29;20571;-73
2022/06/20 04:13:10;;;;;;;4.13;3.60;;;16.70;99.90;;;;;;4936618;29;20580;-72
2022/06/20 04:15:36;;;;;;;5.17;4.30;;;16.60;99.90;;;;;;4940634;29;20580;-72
2022/06/20 04:18:27;;;;;;;4.50;3.00;;;16.60;99.90;;;;;;4936921;29;21175;-72
2022/06/20 04:21:12;;;;;;;3.60;3.30;;;16.60;99.90;;;;;;4936217;29;20192;-72
2022/06/20 04:23:58;;;;;;;3.97;3.30;;;16.60;99.90;;;;;;4919205;29;20691;-72
2022/06/20 04:26:35;;;;;;;4.07;3.27;;;16.60;99.90;;;;;;4935709;29;20580;-72
2022/06/20 04:29:04;;;;;;;4.47;4.07;;;16.60;99.90;;;;;;4936588;29;20898;-72
2022/06/20 04:31:45;;;;;;;4.90;3.63;;;16.60;99.90;;;;;;4934836;29;20671;-72
2022/06/20 04:34:28;;;;;;;7.72;4.57;;;16.60;99.90;;;;;;4936637;29;20583;-73
2022/06/20 04:37:12;;;;;;;4.53;3.80;;;16.50;99.90;;;;;;4935733;29;20343;-72
2022/06/20 04:40:09;;;;;;;5.37;3.80;;;16.50;99.90;;;;;;4918738;29;20692;-72
2022/06/20 04:42:57;;;;;;;6.78;5.05;;;16.50;99.90;;;;;;4936105;29;20635;-72
2022/06/20 04:45:32;;;;;;;4.70;4.40;;;16.50;99.90;;;;;;4936719;29;20169;-72
2022/06/20 04:47:59;;;;;;;7.30;4.33;;;16.50;99.90;;;;;;4936509;29;20647;-72
2022/06/20 04:50:28;;;;;;;5.33;4.77;;;16.50;99.90;;;;;;4934541;29;21170;-72
2022/06/20 04:52:59;;;;;;;6.77;4.53;;;16.50;99.90;;;;;;4939262;29;20628;-72
2022/06/20 04:55:28;;;;;;;6.33;5.07;;;16.50;99.90;;;;;;4936236;29;20573;-72
2022/06/20 04:57:57;;;;;;;6.23;5.20;;;16.50;99.90;;;;;;4936189;29;20631;-72
2022/06/20 05:00:29;;;;;;;5.50;4.83;;;16.50;99.90;;;;;;4918524;29;20631;-72
2022/06/20 05:02:57;;;;;;;6.30;5.70;;;16.50;99.90;;;;;;4936433;29;20993;-73
2022/06/20 05:05:27;;;;;;;6.20;5.60;;;16.50;99.90;;;;;;4918873;29;21141;-72
2022/06/20 05:07:53;;;;;;;9.80;6.07;;;16.40;99.90;;;;;;4935993;29;20604;-72
2022/06/20 05:10:40;;;;;;;7.80;6.63;;;16.50;99.90;;;;;;4935769;29;20611;-72
2022/06/20 05:13:15;;;;;;;9.67;5.70;;;16.50;99.90;;;;;;4935944;29;20595;-72
2022/06/20 05:15:47;;;;;;;8.50;7.00;;;16.50;99.90;;;;;;4934624;29;20592;-72
2022/06/20 05:18:28;;;;;;;9.17;6.20;;;16.50;99.90;;;;;;4935881;29;20655;-73
2022/06/20 05:20:58;;;;;;;7.03;6.40;;;16.40;99.90;;;;;;4933522;29;20624;-72
2022/06/20 05:23:49;;;;;;;8.40;5.87;;;16.50;99.90;;;;;;4935586;29;20632;-73
2022/06/20 05:26:23;;;;;;;12.27;6.77;;;16.40;99.90;;;;;;4935927;29;20569;-73
2022/06/20 05:28:52;;;;;;;6.20;5.60;;;16.40;99.90;;;;;;4938504;29;21199;-72
2022/06/20 05:31:49;;;;;;;5.80;5.00;;;16.40;99.90;;;;;;4935200;29;20627;-73
2022/06/20 05:34:20;;;;;;;7.23;5.90;;;16.40;99.90;;;;;;4934758;29;20598;-72
2022/06/20 05:36:59;;;;;;;6.60;5.07;;;16.50;99.90;;;;;;4936458;29;20628;-72
2022/06/20 05:39:41;;;;;;;7.20;5.80;;;16.50;99.90;;;;;;4935060;29;20605;-73
2022/06/20 05:42:11;;;;;;;6.35;5.45;;;16.50;99.90;;;;;;4935088;29;20561;-72
2022/06/20 05:44:37;;;;;;;6.00;5.30;;;16.50;99.90;;;;;;4935633;29;20176;-72
2022/06/20 05:47:05;;;;;;;5.90;5.23;;;16.60;99.90;;;;;;4934250;29;20593;-72
2022/06/20 05:49:40;;;;;;;6.67;6.07;;;16.60;99.90;;;;;;4935042;29;20600;-72
2022/06/20 05:52:08;;;;;;;5.13;4.63;;;16.60;99.90;;;;;;4934825;29;20579;-72
2022/06/20 05:54:41;;;;;;;6.53;4.93;;;16.60;99.90;;;;;;4935217;29;20584;-72
2022/06/20 05:57:16;;;;;;;5.23;4.30;;;16.60;99.90;;;;;;4935296;29;21028;-71
2022/06/20 05:59:48;;;;;;;6.90;4.47;;;16.60;99.90;;;;;;4934617;29;21035;-72
2022/06/20 06:02:32;;;;;;;6.87;4.47;;;16.60;99.90;;;;;;4933464;29;20593;-72
2022/06/20 06:05:16;;;;;;;6.53;5.18;;;16.70;99.90;;;;;;4932883;29;21325;-72
2022/06/20 06:08:01;;;;;;;4.60;3.70;;;16.60;99.90;;;;;;4933992;29;20224;-73
2022/06/20 06:10:52;;;;;;;5.20;3.60;;;16.60;99.90;;;;;;4932415;29;21188;-72
2022/06/20 06:14:00;;;;;;;5.53;3.07;;;16.70;99.90;;;;;;4933374;29;20565;-73
2022/06/20 06:16:49;;;;;;;4.00;2.10;;;16.70;99.90;;;;;;4934472;29;20953;-73
2022/06/20 06:19:37;;;;;;;3.27;2.60;;;16.80;99.90;;;;;;4914887;29;20608;-72
2022/06/20 06:22:09;;;;;;;3.00;1.67;;;16.80;99.90;;;;;;4915025;29;20570;-72
2022/06/20 06:24:40;;;;;;;3.23;2.17;;;16.80;99.90;;;;;;4915052;29;20664;-72
2022/06/20 06:27:07;;;;;;;4.03;1.70;;;16.70;99.90;;;;;;4913982;29;20614;-73
2022/06/20 06:30:11;;;;;;;3.47;1.30;;;16.70;99.90;;;;;;4913823;29;20617;-73
2022/06/20 06:32:49;;;;;;;4.83;1.80;;;16.70;99.90;;;;;;4914506;29;20589;-73
2022/06/20 06:35:26;;;;;;;5.47;2.20;;;16.70;99.90;;;;;;4915210;29;20581;-73
2022/06/20 06:38:42;;;;;;;4.80;2.17;;;16.70;99.90;;;;;;4914189;29;20629;-73
2022/06/20 06:41:44;;;;;;;6.80;1.80;;;16.70;99.90;;;;;;4894438;29;20717;-73
2022/06/20 06:44:25;;;;;;;5.40;2.00;;;16.70;99.90;;;;;;4885125;29;20609;-73
2022/06/20 06:46:53;;;;;;;4.30;1.67;;;16.70;99.90;;;;;;4931362;29;20605;-73
2022/06/20 06:49:38;;;;;;;3.97;2.03;;;16.80;99.90;;;;;;4924604;29;20715;-73
2022/06/20 06:52:19;;;;;;;4.70;2.30;;;16.80;99.90;;;;;;4916643;29;20679;-74
2022/06/20 06:54:48;;;;;;;5.20;1.90;;;16.70;99.90;;;;;;4933363;29;20601;-73
2022/06/20 06:57:49;;;;;;;5.00;2.30;;;16.70;99.90;;;;;;4932555;29;20796;-73
2022/06/20 07:00:20;;;;;;;4.60;1.80;;;16.70;99.90;;;;;;4916771;29;20660;-73
2022/06/20 07:03:05;;;;;;;5.13;1.85;;;16.70;99.90;;;;;;4932978;29;20581;-73
2022/06/20 07:05:38;;;;;;;7.90;3.20;;;16.70;99.90;;;;;;4915156;29;20170;-73
2022/06/20 07:08:12;;;;;;;3.77;1.77;;;16.70;99.90;;;;;;4929656;29;20596;-73
2022/06/20 07:11:07;;;;;;;7.67;2.00;;;16.60;99.90;;;;;;4932688;29;20648;-73
2022/06/20 07:13:39;;;;;;;3.37;1.53;;;16.70;99.90;;;;;;4933468;29;20632;-74
2022/06/20 07:16:31;;;;;;;7.00;2.70;;;16.70;99.90;;;;;;4933434;29;20624;-74
2022/06/20 07:18:59;;;;;;;3.73;2.33;;;16.70;99.90;;;;;;4924866;29;20624;-73
2022/06/20 07:21:29;;;;;;;5.17;2.57;;;16.70;99.90;;;;;;4925512;29;20677;-73
2022/06/20 07:24:14;;;;;;;4.93;2.60;;;16.60;99.90;;;;;;4933411;29;20663;-73
2022/06/20 07:26:56;;;;;;;3.17;1.90;;;16.60;99.90;;;;;;4933091;29;20953;-73
2022/06/20 07:29:30;;;;;;;5.20;1.70;;;16.60;99.90;;;;;;4933365;29;20611;-73
2022/06/20 07:32:01;;;;;;;6.13;2.90;;;16.60;99.90;;;;;;4933017;29;20928;-73
2022/06/20 07:34:35;;;;;;;4.27;2.13;;;16.60;99.90;;;;;;4933756;29;20974;-73
2022/06/20 07:37:15;;;;;;;4.37;2.43;;;16.60;99.90;;;;;;4916558;29;20656;-73
2022/06/20 07:40:07;;;;;;;5.00;2.20;;;16.60;99.90;;;;;;4932608;29;20769;-73
2022/06/20 07:42:43;;;;;;;3.97;2.37;;;16.50;99.90;;;;;;4931650;29;21192;-73
2022/06/20 07:45:37;;;;;;;8.03;3.40;;;16.50;99.90;;;;;;4932913;29;20573;-73
2022/06/20 07:48:12;;;;;;;7.83;3.13;;;16.60;99.90;;;;;;4922850;29;20577;-73
2022/06/20 07:50:59;;;;;;;5.20;2.40;;;16.50;99.90;;;;;;4932721;29;20604;-72
2022/06/20 07:53:35;;;;;;;4.77;2.30;;;16.60;99.90;;;;;;4933404;29;20589;-72
2022/06/20 07:56:08;;;;;;;4.87;2.20;;;16.50;99.90;;;;;;4936539;29;20580;-73
2022/06/20 07:58:37;;;;;;;3.37;1.93;;;16.60;99.90;;;;;;4935064;29;20632;-73
2022/06/20 08:01:16;;;;;;;4.80;2.20;;;16.60;99.90;;;;;;4936050;29;20973;-75
2022/06/20 08:03:55;;;;;;;11.47;2.20;;;16.60;99.90;;;;;;4936629;29;20616;-75
2022/06/20 08:06:47;;;;;;;6.50;1.77;;;16.60;99.90;;;;;;4936752;29;20573;-74
2022/06/20 08:09:22;;;;;;;6.90;2.30;;;16.70;99.90;;;;;;4936932;29;21195;-74
2022/06/20 08:11:57;;;;;;;5.67;2.20;;;16.70;99.90;;;;;;4936416;29;20588;-74
2022/06/20 08:14:44;;;;;;;4.90;2.30;;;16.70;99.90;;;;;;4936748;29;20576;-74
2022/06/20 08:17:12;;;;;;;5.73;1.90;;;16.70;99.90;;;;;;4935491;29;20628;-74
2022/06/20 08:19:41;;;;;;;7.43;3.30;;;16.80;99.90;;;;;;4934576;29;20735;-74
2022/06/20 08:22:27;;;;;;;4.13;1.40;;;16.80;99.90;;;;;;4935892;29;20589;-74
2022/06/20 08:25:12;;;;;;;5.10;1.60;;;16.90;99.90;;;;;;4936235;29;21167;-74
2022/06/20 08:28:03;;;;;;;2.63;1.50;;;17.00;99.90;;;;;;4935080;29;20588;-74
2022/06/20 08:30:33;;;;;;;4.33;1.27;;;17.00;99.90;;;;;;4935158;29;20629;-74
2022/06/20 08:33:14;;;;;;;3.93;1.80;;;17.10;99.90;;;;;;4935556;29;20688;-75
2022/06/20 08:35:49;;;;;;;3.20;1.10;;;17.20;99.90;;;;;;4951221;29;20587;-74
2022/06/20 08:38:23;;;;;;;6.00;1.83;;;17.20;99.90;;;;;;4934836;29;20768;-74
2022/06/20 08:41:02;;;;;;;3.93;1.17;;;17.30;99.90;;;;;;4932899;29;20619;-82
2022/06/20 08:43:46;;;;;;;3.93;1.30;;;17.30;99.90;;;;;;4935959;29;20691;-82
2022/06/20 08:46:42;;;;;;;1.70;1.07;;;17.40;99.90;;;;;;4934726;29;20600;-82
2022/06/20 08:49:17;;;;;;;3.30;1.30;;;17.60;99.90;;;;;;4931849;29;20955;-82
2022/06/20 08:52:06;;;;;;;3.73;1.10;;;18.10;99.90;;;;;;4936875;29;20579;-81
2022/06/20 08:54:57;;;;;;;3.30;1.90;;;18.60;99.90;;;;;;4936382;29;20604;-82
2022/06/20 08:57:46;;;;;;;5.53;1.47;;;19.20;99.90;;;;;;4935207;29;20643;-80
2022/06/20 09:00:27;;;;;;;3.63;1.00;;;19.70;99.90;;;;;;4911164;29;20642;-81
2022/06/20 09:03:17;;;;;;;6.50;1.20;;;20.10;99.90;;;;;;4935719;29;20910;-81
2022/06/20 09:06:16;;;;;;;3.40;0.90;;;20.30;99.90;;;;;;4936410;29;20595;-81
2022/06/20 09:09:02;;;;;;;3.23;1.00;;;20.40;99.90;;;;;;4934940;29;20683;-80
2022/06/20 09:11:50;;;;;;;7.37;1.17;;;20.60;99.90;;;;;;4937928;28;20944;-80
2022/06/20 09:14:54;;;;;;;5.27;1.40;;;20.70;99.90;;;;;;4935927;29;20592;-80
2022/06/20 09:17:43;;;;;;;3.37;1.43;;;20.60;99.90;;;;;;4857541;29;20642;-80
2022/06/20 09:20:38;;;;;;;2.87;1.00;;;20.70;99.90;;;;;;4938252;29;21020;-80
2022/06/20 09:23:41;;;;;;;5.60;1.53;;;20.60;99.90;;;;;;4934278;29;20696;-74
2022/06/20 09:26:19;;;;;;;4.47;1.60;;;20.70;99.90;;;;;;4934673;29;20584;-74
2022/06/20 09:29:11;;;;;;;3.70;1.47;;;21.00;99.90;;;;;;4935205;29;20581;-73
2022/06/20 09:31:54;;;;;;;9.30;1.70;;;21.60;99.90;;;;;;4934494;29;20580;-81
2022/06/20 09:34:48;;;;;;;5.60;1.27;;;22.30;99.90;;;;;;4936947;29;20573;-81
2022/06/20 09:37:20;;;;;;;2.90;1.37;;;22.90;99.90;;;;;;4938927;29;20762;-79
2022/06/20 09:40:13;;;;;;;4.13;1.87;;;23.30;99.90;;;;;;4940427;29;20605;-79
2022/06/20 09:42:59;;;;;;;4.60;1.73;;;23.50;99.90;;;;;;4940788;29;20596;-79
2022/06/20 09:45:37;;;;;;;6.17;1.50;;;23.70;99.90;;;;;;4936205;29;20605;-72
2022/06/20 09:48:21;;;;;;;5.80;1.60;;;23.70;99.90;;;;;;4931863;29;20597;-74
2022/06/20 09:51:02;;;;;;;3.57;1.30;;;23.70;99.90;;;;;;4933832;29;20716;-74
2022/06/20 09:53:45;;;;;;;2.70;1.57;;;23.70;99.90;;;;;;4932442;29;20655;-74
2022/06/20 09:56:17;;;;;;;4.20;1.63;;;23.70;99.90;;;;;;4933250;29;20664;-74
2022/06/20 09:58:49;;;;;;;3.73;1.60;;;23.90;99.90;;;;;;4933084;29;20599;-73
2022/06/20 10:01:31;;;;;;;5.33;2.20;;;23.90;99.90;;;;;;4932910;29;21075;-74
2022/06/20 10:04:02;;;;;;;4.23;1.77;;;23.90;99.90;;;;;;4933071;29;21254;-75
2022/06/20 10:06:54;;;;;;;5.10;1.80;;;23.90;99.90;;;;;;4934285;29;20899;-75
2022/06/20 10:09:26;;;;;;;5.70;1.43;;;23.90;99.90;;;;;;4932784;29;20605;-75
2022/06/20 10:12:05;;;;;;;4.13;1.70;;;23.80;99.90;;;;;;4932398;29;20593;-75
2022/06/20 10:14:54;;;;;;;6.00;2.40;;;23.70;99.90;;;;;;4933784;29;21175;-74
2022/06/20 10:17:43;;;;;;;4.20;1.70;;;23.60;99.90;;;;;;4929638;29;20636;-73
2022/06/20 10:20:21;;;;;;;3.50;1.77;;;23.40;99.90;;;;;;4913620;29;20719;-73
2022/06/20 10:23:12;;;;;;;4.47;2.30;;;23.30;99.90;;;;;;4916015;29;20574;-72
2022/06/20 10:26:19;;;;;;;3.80;2.17;;;23.10;99.90;;;;;;4929617;29;20589;-74
2022/06/20 10:28:49;;;;;;;5.03;2.97;;;23.00;99.90;;;;;;4922826;29;20589;-74
2022/06/20 10:31:39;;;;;;;6.23;3.10;;;22.80;99.90;;;;;;4933317;29;20593;-74
2022/06/20 10:34:12;;;;;;;4.30;3.27;;;22.60;99.90;;;;;;4933869;29;21125;-74
2022/06/20 10:36:51;;;;;;;3.80;3.40;;;22.40;99.90;;;;;;4933643;29;21128;-73
2022/06/20 10:39:52;;;;;;;4.80;4.30;;;22.30;99.90;;;;;;4933351;29;21243;-74
2022/06/20 10:42:42;;;;;;;12.53;6.47;;;22.20;99.90;;;;;;4920419;29;20687;-74
2022/06/20 10:45:16;;;;;;;5.23;4.13;;;22.20;99.90;;;;;;4933660;29;20577;-80
2022/06/20 10:48:07;;;;;;;7.50;5.03;;;22.30;99.90;;;;;;4934360;29;20611;-80
2022/06/20 10:50:48;;;;;;;5.60;5.00;;;22.50;99.90;;;;;;4933919;29;20604;-79
2022/06/20 10:53:39;;;;;;;6.57;4.23;;;22.60;99.90;;;;;;4933726;29;20580;-80
2022/06/20 10:56:24;;;;;;;6.83;5.03;;;22.80;99.90;;;;;;4934195;29;20734;-80
2022/06/20 10:58:59;;;;;;;5.50;4.57;;;22.80;99.90;;;;;;4937992;29;20580;-80
2022/06/20 11:01:52;;;;;;;6.07;4.33;;;22.90;99.90;;;;;;4943486;29;20588;-80
2022/06/20 11:04:40;;;;;;;5.77;4.60;;;23.00;99.90;;;;;;4905992;29;20953;-80
2022/06/20 11:07:31;;;;;;;6.37;3.60;;;23.00;99.90;;;;;;4916524;29;21038;-80
2022/06/20 11:10:34;;;;;;;6.57;3.70;;;23.10;99.90;;;;;;4933428;29;20601;-80
2022/06/20 11:13:22;;;;;;;5.60;4.00;;;23.30;99.90;;;;;;4932021;29;20592;-80
2022/06/20 11:16:06;;;;;;;5.70;3.30;;;23.40;99.90;;;;;;4934077;29;20584;-81
2022/06/20 11:18:46;;;;;;;6.10;3.77;;;23.50;99.90;;;;;;4933383;29;21607;-80
2022/06/20 11:21:37;;;;;;;9.03;5.10;;;23.60;99.90;;;;;;4931735;29;20695;-79
2022/06/20 11:24:09;;;;;;;4.50;3.47;;;23.70;99.90;;;;;;4933329;29;20648;-79
2022/06/20 11:26:44;;;;;;;10.80;4.33;;;23.80;99.90;;;;;;4927635;29;21087;-77
2022/06/20 11:29:38;;;;;;;5.40;3.30;;;23.90;99.90;;;;;;4928687;29;20593;-78
2022/06/20 11:32:14;;;;;;;9.83;3.50;;;24.00;99.90;;;;;;4934090;29;20632;-78
2022/06/20 11:34:52;;;;;;;5.40;2.67;;;24.30;99.90;;;;;;4920058;29;20577;-78
2022/06/20 11:37:36;;;;;;;5.70;3.20;;;24.60;99.90;;;;;;4940115;29;20624;-78
2022/06/20 11:40:09;;;;;;;4.97;3.00;;;24.90;99.90;;;;;;4935300;29;20600;-78
2022/06/20 11:43:09;;;;;;;6.67;3.63;;;25.10;99.90;;;;;;4935255;29;20581;-78
2022/06/20 11:45:35;;;;;;;3.80;2.30;;;25.30;99.90;;;;;;4936285;29;20569;-78
2022/06/20 11:48:28;;;;;;;4.50;2.43;;;25.40;99.90;;;;;;4936376;29;20607;-78
2022/06/20 11:51:12;;;;;;;4.23;2.43;;;25.50;99.90;;;;;;4914364;29;20249;-76
2022/06/20 11:54:00;;;;;;;6.53;2.47;;;25.60;99.90;;;;;;4917706;29;20570;-76
2022/06/20 11:56:48;;;;;;;5.77;2.50;;;25.60;99.90;;;;;;4929490;29;20577;-76
2022/06/20 11:59:24;;;;;;;5.77;3.13;;;25.70;99.90;;;;;;4934742;29;20635;-76
2022/06/20 12:01:58;;;;;;;3.60;2.70;;;26.20;99.90;;;;;;4934289;29;20588;-77
2022/06/20 12:05:15;;;;;;;6.93;2.97;;;26.60;99.90;;;;;;4936205;29;20612;-77
2022/06/20 12:08:03;;;;;;;5.33;3.00;;;26.90;99.90;;;;;;4934845;29;20703;-77
2022/06/20 12:10:43;;;;;;;5.40;3.07;;;27.30;99.90;;;;;;4937169;29;20601;-78
2022/06/20 12:13:38;;;;;;;6.10;2.43;;;27.70;99.90;;;;;;4943323;29;20606;-77
2022/06/20 12:16:16;;;;;;;7.17;2.40;;;28.10;99.90;;;;;;4941616;29;20577;-78
2022/06/20 12:24:28;;;;;;;4.10;1.20;;;29.00;99.90;;;;;;4942302;29;20577;-77
2022/06/20 12:26:55;;;;;;;3.30;1.87;;;29.00;98.10;;;;;;4939594;29;20580;-77
2022/06/20 12:29:24;;;;;;;3.00;1.43;;;28.90;96.20;;;;;;4941813;29;20616;-77
2022/06/20 12:31:57;;;;;;;4.10;1.90;;;28.60;95.40;;;;;;4940154;29;20585;-78
2022/06/20 12:34:29;;;;;;;4.63;2.83;;;28.40;93.70;;;;;;4939306;29;20584;-78
2022/06/20 12:36:58;;;;;;;2.87;1.20;;;28.20;95.10;;;;;;4937236;29;20758;-77
2022/06/20 12:39:38;;;;;;;1.83;1.00;;;28.10;93.80;;;;;;4935111;29;21263;-77
2022/06/20 12:42:23;;;;;;;3.00;1.40;;;27.90;91.80;;;;;;4936235;29;20585;-78
2022/06/20 12:45:00;;;;;;;2.20;0.90;;;27.70;92.80;;;;;;4934594;29;20604;-77
2022/06/20 12:48:03;;;;;;;2.73;0.80;;;27.60;91.20;;;;;;4935182;29;20585;-77
2022/06/20 12:51:10;;;;;;;1.90;0.70;;;27.50;91.50;;;;;;4919383;29;20601;-77
2022/06/20 12:53:41;;;;;;;2.27;0.90;;;27.40;90.20;;;;;;4918096;29;20665;-77
2022/06/20 12:56:31;;;;;;;2.07;0.90;;;27.30;85.90;;;;;;4920162;29;20671;-76
2022/06/20 12:59:12;;;;;;;2.10;0.70;;;27.00;85.90;;;;;;4935329;29;21129;-76
2022/06/20 13:01:54;;;;;;;3.47;0.70;;;26.90;85.20;;;;;;4933712;29;20604;-77
2022/06/20 13:04:50;;;;;;;1.80;0.87;;;26.70;86.10;;;;;;4937078;29;20585;-78
2022/06/20 13:07:31;;;;;;;3.40;0.70;;;26.60;86.40;;;;;;4935377;29;21156;-76
2022/06/20 13:10:26;;;;;;;2.57;0.70;;;26.50;85.40;;;;;;4935101;29;20961;-77
2022/06/20 13:13:16;;;;;;;1.80;0.67;;;26.40;84.40;;;;;;4919330;29;20623;-79
2022/06/20 13:16:01;;;;;;;3.77;1.10;;;26.30;84.60;;;;;;4935964;29;20596;-79
2022/06/20 13:18:29;;;;;;;3.43;0.80;;;26.30;84.40;;;;;;4937914;29;20628;-79
2022/06/20 13:21:04;;;;;;;3.37;0.90;;;26.30;83.50;;;;;;4936867;29;20621;-79
2022/06/20 13:23:58;;;;;;;1.77;0.67;;;26.20;83.50;;;;;;4929516;29;20968;-77
2022/06/20 13:26:53;;;;;;;2.33;0.70;;;26.20;83.70;;;;;;4939060;29;20611;-78
2022/06/20 13:29:29;;;;;;;2.57;0.80;;;26.10;81.00;;;;;;4933708;29;20640;-77
2022/06/20 13:32:07;;;;;;;2.60;0.70;;;26.10;81.80;;;;;;4934389;29;20623;-78
2022/06/20 13:35:00;;;;;;;2.13;1.27;;;26.10;80.80;;;;;;4933972;29;21167;-78
2022/06/20 13:37:51;;;;;;;1.70;0.60;;;26.00;79.90;;;;;;4935197;29;21036;-77
2022/06/20 13:40:22;;;;;;;2.00;0.80;;;25.90;79.40;;;;;;4936037;29;20624;-77
2022/06/20 13:43:00;;;;;;;2.00;0.63;;;25.80;80.70;;;;;;4931941;29;20946;-77
2022/06/20 13:45:39;;;;;;;2.93;1.10;;;25.90;81.00;;;;;;4936802;29;20746;-77
2022/06/20 13:48:30;;;;;;;2.53;0.80;;;25.90;80.10;;;;;;4942793;28;21156;-77
2022/06/20 13:51:12;;;;;;;3.63;0.90;;;25.90;80.70;;;;;;4936985;29;20605;-78
2022/06/20 13:54:19;;;;;;;2.80;1.20;;;25.90;77.70;;;;;;4930181;29;20605;-78